Time;durP1;ratioP1;P1;durP2;ratioP2;P2;SDS_P1;SDS_P2;PMS_P1;PMS_P2;Temp;Humidity;BMP_temperature;BMP_pressure;BME280_temperature;BME280_humidity;BME280_pressure;Samples;Min_cycle;Max_cycle;Signal;HPM_P1;HPM_P2
2023/01/23 00:00:33;;;;;;;;;;;17.60;63.80;;;;;;5024575;28;1666;-72
2023/01/23 00:02:58;;;;;;;;;;;17.60;63.90;;;;;;5025986;28;1273;-73
2023/01/23 00:05:24;;;;;;;;;;;17.60;63.80;;;;;;5021578;28;1344;-72
2023/01/23 00:07:49;;;;;;;;;;;17.60;63.90;;;;;;5023182;28;1362;-72
2023/01/23 00:10:15;;;;;;;;;;;17.60;63.80;;;;;;5022964;28;919;-73
2023/01/23 00:12:41;;;;;;;;;;;17.60;63.90;;;;;;5026831;28;901;-72
2023/01/23 00:15:07;;;;;;;;;;;17.60;63.90;;;;;;5055583;28;1233;-72
2023/01/23 00:17:33;;;;;;;;;;;17.60;63.90;;;;;;5024643;28;1926;-72
2023/01/23 00:19:59;;;;;;;;;;;17.60;63.90;;;;;;5021293;28;850;-72
2023/01/23 00:22:25;;;;;;;;;;;17.60;63.90;;;;;;5022693;28;903;-72
2023/01/23 00:24:50;;;;;;;;;;;17.60;63.90;;;;;;5024527;28;844;-72
2023/01/23 00:27:15;;;;;;;;;;;17.60;63.90;;;;;;5032969;28;1600;-72
2023/01/23 00:29:41;;;;;;;;;;;17.60;64.00;;;;;;5025269;28;879;-72
2023/01/23 00:32:06;;;;;;;;;;;17.60;64.00;;;;;;5022011;28;916;-72
2023/01/23 00:34:32;;;;;;;;;;;17.60;64.00;;;;;;5021038;28;1396;-74
2023/01/23 00:36:57;;;;;;;;;;;17.60;64.00;;;;;;5037778;28;1893;-72
2023/01/23 00:39:23;;;;;;;;;;;17.60;64.00;;;;;;5025607;28;836;-73
2023/01/23 00:41:48;;;;;;;;;;;17.50;63.90;;;;;;5025464;28;802;-73
2023/01/23 00:44:14;;;;;;;;;;;17.50;63.90;;;;;;5048985;28;939;-72
2023/01/23 00:46:39;;;;;;;;;;;17.60;64.00;;;;;;5039368;28;1354;-73
2023/01/23 00:49:05;;;;;;;;;;;17.60;64.10;;;;;;5022105;28;892;-73
2023/01/23 00:51:30;;;;;;;;;;;17.60;64.00;;;;;;5034115;28;1339;-72
2023/01/23 00:53:56;;;;;;;;;;;17.60;64.10;;;;;;5028161;28;1336;-72
2023/01/23 00:56:21;;;;;;;;;;;17.60;64.00;;;;;;5022414;28;1890;-72
2023/01/23 00:58:47;;;;;;;;;;;17.50;64.00;;;;;;5020600;28;1351;-72
2023/01/23 01:01:13;;;;;;;;;;;17.60;64.00;;;;;;5017826;28;887;-72
2023/01/23 01:03:38;;;;;;;;;;;17.60;64.10;;;;;;5050745;28;836;-71
2023/01/23 01:06:04;;;;;;;;;;;17.60;64.00;;;;;;5018889;28;908;-72
2023/01/23 01:08:29;;;;;;;;;;;17.50;64.00;;;;;;5017730;28;1370;-72
2023/01/23 01:10:55;;;;;;;;;;;17.50;64.00;;;;;;5036853;28;1364;-73
2023/01/23 01:13:22;;;;;;;;;;;17.50;64.00;;;;;;5020795;28;842;-72
2023/01/23 01:15:48;;;;;;;;;;;17.60;64.10;;;;;;5020017;28;895;-73
2023/01/23 01:18:13;;;;;;;;;;;17.60;64.10;;;;;;5020908;28;1930;-72
2023/01/23 01:20:39;;;;;;;;;;;17.60;64.10;;;;;;5019621;28;927;-72
2023/01/23 01:23:05;;;;;;;;;;;17.60;64.10;;;;;;5019992;28;927;-73
2023/01/23 01:25:30;;;;;;;;;;;17.50;64.00;;;;;;5021396;28;956;-72
2023/01/23 01:27:56;;;;;;;;;;;17.50;64.00;;;;;;5025991;28;1355;-72
2023/01/23 01:30:21;;;;;;;;;;;17.60;64.10;;;;;;5022917;28;1062;-72
2023/01/23 01:32:47;;;;;;;;;;;17.50;64.10;;;;;;5023739;28;1500;-73
2023/01/23 01:35:12;;;;;;;;;;;17.50;64.10;;;;;;5019731;28;1295;-72
2023/01/23 01:37:38;;;;;;;;;;;17.50;64.10;;;;;;5051404;28;1934;-73
2023/01/23 01:40:07;;;;;;;;;;;17.50;64.10;;;;;;5018379;28;766;-72
2023/01/23 01:42:42;;;;;;;;;;;17.50;64.10;;;;;;5052357;28;882;-72
2023/01/23 01:45:27;;;;;;;;;;;17.50;64.10;;;;;;5053891;28;904;-72
2023/01/23 01:47:52;;;;;;;;;;;17.50;64.10;;;;;;5023984;28;1387;-72
2023/01/23 01:50:18;;;;;;;;;;;17.50;64.10;;;;;;5016396;28;884;-72
2023/01/23 01:52:43;;;;;;;;;;;17.50;64.10;;;;;;5020576;28;1059;-72
2023/01/23 01:55:09;;;;;;;;;;;17.50;64.10;;;;;;5018573;28;844;-71
2023/01/23 01:57:35;;;;;;;;;;;17.50;64.10;;;;;;5018781;28;1943;-71
2023/01/23 02:00:04;;;;;;;;;;;17.50;64.10;;;;;;5051303;28;900;-73
2023/01/23 02:02:37;;;;;;;;;;;17.50;64.10;;;;;;5017957;28;1236;-73
2023/01/23 02:05:04;;;;;;;;;;;17.50;64.10;;;;;;5021548;28;1257;-72
2023/01/23 02:07:33;;;;;;;;;;;17.50;64.10;;;;;;5020586;28;1346;-72
2023/01/23 02:09:59;;;;;;;;;;;17.50;64.10;;;;;;5027712;28;1166;-72
2023/01/23 02:12:25;;;;;;;;;;;17.50;64.10;;;;;;5049603;28;944;-71
2023/01/23 02:14:51;;;;;;;;;;;17.50;64.10;;;;;;5048184;28;903;-72
2023/01/23 02:17:16;;;;;;;;;;;17.50;64.20;;;;;;5018503;28;1902;-72
2023/01/23 02:19:53;;;;;;;;;;;17.50;64.10;;;;;;5050044;28;1404;-72
2023/01/23 02:22:21;;;;;;;;;;;17.50;64.20;;;;;;5018709;28;839;-73
2023/01/23 02:24:51;;;;;;;;;;;17.50;64.20;;;;;;5020815;28;892;-73
2023/01/23 02:27:16;;;;;;;;;;;17.50;64.20;;;;;;5021736;28;1345;-72
2023/01/23 02:29:43;;;;;;;;;;;17.50;64.20;;;;;;5017353;28;903;-72
2023/01/23 02:32:09;;;;;;;;;;;17.50;64.20;;;;;;5019657;28;918;-72
2023/01/23 02:34:34;;;;;;;;;;;17.50;64.20;;;;;;5051884;28;1365;-72
2023/01/23 02:37:00;;;;;;;;;;;17.50;64.20;;;;;;5053291;28;1902;-72
2023/01/23 02:39:26;;;;;;;;;;;17.50;64.20;;;;;;5020385;28;1387;-72
2023/01/23 02:41:52;;;;;;;;;;;17.50;64.20;;;;;;5017710;28;859;-74
2023/01/23 02:44:18;;;;;;;;;;;17.50;64.20;;;;;;5050609;28;1563;-73
2023/01/23 02:46:44;;;;;;;;;;;17.50;64.20;;;;;;5021501;28;1328;-73
2023/01/23 02:49:09;;;;;;;;;;;17.50;64.30;;;;;;5052157;28;1391;-73
2023/01/23 02:51:35;;;;;;;;;;;17.50;64.30;;;;;;5020568;28;1372;-73
2023/01/23 02:54:00;;;;;;;;;;;17.50;65.00;;;;;;5020997;28;1448;-71
2023/01/23 02:56:26;;;;;;;;;;;17.50;64.20;;;;;;5018110;28;2005;-71
2023/01/23 03:01:35;;;;;;;;;;;17.50;64.30;;;;;;5018480;28;812;-70
2023/01/23 03:04:02;;;;;;;;;;;17.50;64.30;;;;;;5017122;28;1242;-71
2023/01/23 03:06:28;;;;;;;;;;;17.50;64.30;;;;;;5014358;28;905;-71
2023/01/23 03:08:54;;;;;;;;;;;17.50;64.30;;;;;;5019160;28;1263;-71
2023/01/23 03:11:20;;;;;;;;;;;17.50;64.30;;;;;;5016684;28;824;-70
2023/01/23 03:13:46;;;;;;;;;;;17.50;64.30;;;;;;5016738;28;898;-72
2023/01/23 03:16:11;;;;;;;;;;;17.50;64.30;;;;;;5048852;28;1050;-72
2023/01/23 03:18:37;;;;;;;;;;;17.50;64.30;;;;;;5020758;28;1984;-71
2023/01/23 03:21:02;;;;;;;;;;;17.50;64.30;;;;;;5018786;28;1159;-72
2023/01/23 03:23:28;;;;;;;;;;;17.50;64.30;;;;;;5022170;28;884;-72
2023/01/23 03:25:57;;;;;;;;;;;17.50;64.30;;;;;;5019202;28;908;-72
2023/01/23 03:31:07;;;;;;;;;;;17.40;64.70;;;;;;5016966;28;823;-71
2023/01/23 03:33:33;;;;;;;;;;;17.50;64.30;;;;;;5020531;28;915;-71
2023/01/23 03:35:59;;;;;;;;;;;17.50;64.30;;;;;;5019244;28;1461;-71
2023/01/23 03:38:25;;;;;;;;;;;17.50;64.30;;;;;;5019079;28;1906;-72
2023/01/23 03:43:34;;;;;;;;;;;17.40;64.20;;;;;;5014588;28;838;-71
2023/01/23 03:46:00;;;;;;;;;;;17.50;64.30;;;;;;5019611;28;887;-71
2023/01/23 03:48:25;;;;;;;;;;;17.50;64.30;;;;;;5047555;28;1246;-72
2023/01/23 03:50:51;;;;;;;;;;;17.50;64.30;;;;;;5018531;28;847;-71
2023/01/23 03:53:16;;;;;;;;;;;17.50;64.30;;;;;;5017855;28;1037;-71
2023/01/23 03:55:44;;;;;;;;;;;17.50;64.30;;;;;;5049609;28;803;-73
2023/01/23 03:58:09;;;;;;;;;;;17.40;64.20;;;;;;5019474;28;1903;-74
2023/01/23 04:00:34;;;;;;;;;;;17.50;64.30;;;;;;5019093;28;1030;-73
2023/01/23 04:03:00;;;;;;;;;;;17.40;64.20;;;;;;5050676;28;1271;-73
2023/01/23 04:05:25;;;;;;;;;;;17.50;64.30;;;;;;5019501;28;1367;-75
2023/01/23 04:07:51;;;;;;;;;;;17.50;64.30;;;;;;5016973;28;1336;-75
2023/01/23 04:10:16;;;;;;;;;;;17.40;64.20;;;;;;5054364;28;817;-75
2023/01/23 04:12:43;;;;;;;;;;;17.40;64.30;;;;;;5021061;28;1177;-74
2023/01/23 04:15:09;;;;;;;;;;;17.40;64.30;;;;;;5018426;28;864;-75
2023/01/23 04:17:34;;;;;;;;;;;17.40;64.30;;;;;;5019710;28;1910;-75
2023/01/23 04:20:00;;;;;;;;;;;17.40;64.30;;;;;;5024522;28;924;-75
2023/01/23 04:22:25;;;;;;;;;;;17.40;64.30;;;;;;5023893;28;836;-72
2023/01/23 04:24:51;;;;;;;;;;;17.40;64.30;;;;;;5022503;28;917;-72
2023/01/23 04:27:16;;;;;;;;;;;17.40;64.30;;;;;;5023025;28;1306;-73
2023/01/23 04:29:41;;;;;;;;;;;17.40;64.30;;;;;;5021565;28;809;-72
2023/01/23 04:32:08;;;;;;;;;;;17.40;64.30;;;;;;5022325;28;1693;-72
2023/01/23 04:34:34;;;;;;;;;;;17.40;64.30;;;;;;5020830;28;1370;-72
2023/01/23 04:36:59;;;;;;;;;;;17.40;64.30;;;;;;5053242;28;1914;-73
2023/01/23 04:39:25;;;;;;;;;;;17.40;64.30;;;;;;5037278;28;1295;-73
2023/01/23 04:41:50;;;;;;;;;;;17.40;64.30;;;;;;5023942;28;875;-73
2023/01/23 04:44:19;;;;;;;;;;;17.40;64.30;;;;;;5052909;28;819;-73
2023/01/23 04:46:51;;;;;;;;;;;17.40;64.30;;;;;;5053314;28;1242;-72
2023/01/23 04:49:18;;;;;;;;;;;17.40;64.30;;;;;;5034517;28;1514;-72
2023/01/23 04:51:44;;;;;;;;;;;17.40;64.30;;;;;;5022685;28;908;-72
2023/01/23 04:54:10;;;;;;;;;;;17.40;64.30;;;;;;5020258;28;856;-73
2023/01/23 04:56:35;;;;;;;;;;;17.40;64.30;;;;;;5020666;28;1969;-72
2023/01/23 04:59:01;;;;;;;;;;;17.40;64.30;;;;;;5022205;28;1413;-74
2023/01/23 05:01:26;;;;;;;;;;;17.40;64.30;;;;;;5051580;28;847;-74
2023/01/23 05:03:52;;;;;;;;;;;17.40;64.30;;;;;;5017455;28;1277;-73
2023/01/23 05:06:17;;;;;;;;;;;17.40;64.30;;;;;;5019546;28;1026;-72
2023/01/23 05:08:43;;;;;;;;;;;17.40;64.30;;;;;;5019369;28;1272;-74
2023/01/23 05:11:08;;;;;;;;;;;17.40;64.30;;;;;;5022834;28;966;-73
2023/01/23 05:13:34;;;;;;;;;;;17.50;64.30;;;;;;5020259;28;1010;-73
2023/01/23 05:15:59;;;;;;;;;;;17.50;64.20;;;;;;5023629;28;851;-73
2023/01/23 05:18:25;;;;;;;;;;;17.50;64.10;;;;;;5022852;28;1985;-73
2023/01/23 05:20:50;;;;;;;;;;;17.50;64.00;;;;;;5025579;28;1085;-72
2023/01/23 05:23:16;;;;;;;;;;;17.60;63.80;;;;;;5024723;28;851;-74
2023/01/23 05:25:41;;;;;;;;;;;17.60;63.70;;;;;;5022471;28;1067;-73
2023/01/23 05:28:06;;;;;;;;;;;17.60;63.50;;;;;;5036917;28;1267;-73
2023/01/23 05:30:32;;;;;;;;;;;17.70;63.50;;;;;;5026058;28;1251;-73
2023/01/23 05:32:57;;;;;;;;;;;17.70;63.30;;;;;;5021701;28;804;-76
2023/01/23 05:35:23;;;;;;;;;;;17.70;63.20;;;;;;5058877;28;915;-72
2023/01/23 05:37:50;;;;;;;;;;;17.80;63.10;;;;;;5026320;28;1910;-72
2023/01/23 05:40:15;;;;;;;;;;;17.80;63.00;;;;;;5026027;28;832;-72
2023/01/23 05:42:41;;;;;;;;;;;17.80;62.90;;;;;;5023519;28;850;-71
2023/01/23 05:45:06;;;;;;;;;;;17.80;62.90;;;;;;5024702;28;1078;-74
2023/01/23 05:47:32;;;;;;;;;;;17.90;62.80;;;;;;5024289;28;1224;-73
2023/01/23 05:49:57;;;;;;;;;;;17.90;62.80;;;;;;5019255;28;1243;-73
2023/01/23 05:52:23;;;;;;;;;;;17.90;62.70;;;;;;5016166;28;867;-73
2023/01/23 05:54:49;;;;;;;;;;;17.90;62.60;;;;;;5022803;28;810;-74
2023/01/23 05:57:14;;;;;;;;;;;17.90;62.60;;;;;;5023462;28;1974;-74
2023/01/23 05:59:40;;;;;;;;;;;17.90;62.50;;;;;;5046993;28;879;-74
2023/01/23 06:02:05;;;;;;;;;;;17.90;62.50;;;;;;5018167;28;871;-73
2023/01/23 06:04:31;;;;;;;;;;;17.90;62.40;;;;;;5016455;28;993;-73
2023/01/23 06:06:56;;;;;;;;;;;18.00;62.50;;;;;;5041083;28;1310;-74
2023/01/23 06:09:22;;;;;;;;;;;18.00;62.40;;;;;;5019466;28;1295;-73
2023/01/23 06:11:47;;;;;;;;;;;18.00;62.40;;;;;;5016926;28;907;-73
2023/01/23 06:14:13;;;;;;;;;;;18.00;62.40;;;;;;5016386;28;819;-74
2023/01/23 06:16:38;;;;;;;;;;;18.00;62.40;;;;;;5021291;28;2040;-71
2023/01/23 06:19:04;;;;;;;;;;;18.00;62.40;;;;;;5053798;28;1364;-71
2023/01/23 06:21:29;;;;;;;;;;;18.00;62.40;;;;;;5020065;28;899;-71
2023/01/23 06:23:54;;;;;;;;;;;18.00;62.50;;;;;;5019728;28;896;-71
2023/01/23 06:26:20;;;;;;;;;;;17.90;62.40;;;;;;5019419;28;1019;-70
2023/01/23 06:28:45;;;;;;;;;;;17.90;62.40;;;;;;5019080;28;1264;-70
2023/01/23 06:31:11;;;;;;;;;;;17.90;62.50;;;;;;5016456;28;1066;-70
2023/01/23 06:33:36;;;;;;;;;;;17.90;62.50;;;;;;5032743;28;829;-70
2023/01/23 06:36:03;;;;;;;;;;;17.90;62.50;;;;;;5019957;28;1237;-70
2023/01/23 06:38:28;;;;;;;;;;;17.90;62.50;;;;;;5041781;28;1930;-72
2023/01/23 06:40:54;;;;;;;;;;;17.90;62.50;;;;;;5020460;28;882;-70
2023/01/23 06:43:19;;;;;;;;;;;17.90;62.50;;;;;;5018964;28;849;-70
2023/01/23 06:45:45;;;;;;;;;;;17.90;62.50;;;;;;5018219;28;1067;-70
2023/01/23 06:48:11;;;;;;;;;;;17.90;62.50;;;;;;5053687;28;1343;-72
2023/01/23 06:50:37;;;;;;;;;;;17.90;62.50;;;;;;5049768;28;1081;-71
2023/01/23 06:53:04;;;;;;;;;;;17.90;62.50;;;;;;5049016;28;1209;-71
2023/01/23 06:55:29;;;;;;;;;;;17.90;62.50;;;;;;5016336;28;824;-71
2023/01/23 06:57:55;;;;;;;;;;;17.90;62.50;;;;;;5022128;28;1910;-71
2023/01/23 07:00:21;;;;;;;;;;;17.90;62.50;;;;;;5015702;28;808;-70
2023/01/23 07:02:46;;;;;;;;;;;17.90;62.40;;;;;;5021173;28;836;-69
2023/01/23 07:05:12;;;;;;;;;;;17.90;62.40;;;;;;5032125;28;1798;-71
2023/01/23 07:07:37;;;;;;;;;;;17.90;62.50;;;;;;5020614;28;1258;-68
2023/01/23 07:10:03;;;;;;;;;;;17.90;62.50;;;;;;5017545;28;1359;-69
2023/01/23 07:12:28;;;;;;;;;;;17.90;62.50;;;;;;5016220;28;897;-70
2023/01/23 07:14:54;;;;;;;;;;;17.90;62.50;;;;;;5018836;28;934;-70
2023/01/23 07:17:19;;;;;;;;;;;17.90;62.50;;;;;;5018150;28;1973;-70
2023/01/23 07:19:45;;;;;;;;;;;17.90;62.50;;;;;;5018342;28;871;-69
2023/01/23 07:22:10;;;;;;;;;;;17.90;62.50;;;;;;5034790;28;884;-68
2023/01/23 07:24:35;;;;;;;;;;;17.90;62.60;;;;;;5019365;28;1794;-69
2023/01/23 07:27:01;;;;;;;;;;;17.90;62.60;;;;;;5026536;28;1356;-71
2023/01/23 07:29:26;;;;;;;;;;;17.90;62.60;;;;;;5016747;28;827;-71
2023/01/23 07:31:52;;;;;;;;;;;17.90;62.60;;;;;;5049364;28;871;-71
2023/01/23 07:34:17;;;;;;;;;;;17.90;62.60;;;;;;5019725;28;1348;-70
2023/01/23 07:36:43;;;;;;;;;;;17.90;62.70;;;;;;5020907;28;1914;-69
2023/01/23 07:39:08;;;;;;;;;;;17.90;62.70;;;;;;5035814;28;819;-71
2023/01/23 07:41:34;;;;;;;;;;;17.90;62.70;;;;;;5019142;28;938;-71
2023/01/23 07:43:59;;;;;;;;;;;17.90;62.70;;;;;;5024328;28;788;-70
2023/01/23 07:46:25;;;;;;;;;;;17.90;62.70;;;;;;5021394;28;852;-71
2023/01/23 07:48:51;;;;;;;;;;;17.80;62.70;;;;;;5021297;28;1389;-69
2023/01/23 07:51:16;;;;;;;;;;;17.80;62.70;;;;;;5023870;28;880;-70
2023/01/23 07:53:42;;;;;;;;;;;17.80;62.80;;;;;;5059642;28;1050;-70
2023/01/23 07:56:07;;;;;;;;;;;17.90;62.80;;;;;;5020580;28;1540;-70
2023/01/23 07:58:33;;;;;;;;;;;17.80;62.80;;;;;;5021440;28;1898;-71
2023/01/23 08:00:58;;;;;;;;;;;17.80;62.80;;;;;;5025534;28;999;-72
2023/01/23 08:03:27;;;;;;;;;;;17.80;62.80;;;;;;5056988;28;1287;-71
2023/01/23 08:05:53;;;;;;;;;;;17.80;62.80;;;;;;5022000;28;1454;-72
2023/01/23 08:08:18;;;;;;;;;;;17.80;62.80;;;;;;5021936;28;1324;-71
2023/01/23 08:10:44;;;;;;;;;;;17.80;62.90;;;;;;5022597;28;1022;-70
2023/01/23 08:13:10;;;;;;;;;;;17.80;62.80;;;;;;5019271;28;849;-72
2023/01/23 08:15:36;;;;;;;;;;;17.80;62.80;;;;;;5019856;28;899;-72
2023/01/23 08:18:02;;;;;;;;;;;17.80;62.80;;;;;;5025134;28;1914;-72
2023/01/23 08:20:27;;;;;;;;;;;17.80;62.80;;;;;;5023410;28;936;-71
2023/01/23 08:22:52;;;;;;;;;;;17.80;62.80;;;;;;5018950;28;1050;-71
2023/01/23 08:25:18;;;;;;;;;;;17.80;62.80;;;;;;5018688;28;989;-71
2023/01/23 08:27:43;;;;;;;;;;;17.90;62.80;;;;;;5020141;28;1260;-72
2023/01/23 08:30:09;;;;;;;;;;;17.90;62.90;;;;;;5020235;28;967;-70
2023/01/23 08:32:35;;;;;;;;;;;17.90;62.80;;;;;;5022808;28;986;-72
2023/01/23 08:35:01;;;;;;;;;;;17.90;62.80;;;;;;5021357;28;1356;-73
2023/01/23 08:37:27;;;;;;;;;;;17.90;62.80;;;;;;5024529;28;1902;-73
2023/01/23 08:39:52;;;;;;;;;;;17.90;62.80;;;;;;5022325;28;824;-72
2023/01/23 08:42:18;;;;;;;;;;;17.90;62.70;;;;;;5022346;28;836;-73
2023/01/23 08:44:43;;;;;;;;;;;17.90;62.70;;;;;;5036147;28;952;-73
2023/01/23 08:47:09;;;;;;;;;;;17.90;63.40;;;;;;5021867;28;1250;-74
2023/01/23 08:49:34;;;;;;;;;;;17.90;62.70;;;;;;5021184;28;828;-74
2023/01/23 08:52:00;;;;;;;;;;;17.90;62.70;;;;;;5053153;28;985;-74
2023/01/23 08:54:25;;;;;;;;;;;17.90;62.60;;;;;;5022425;28;991;-74
2023/01/23 08:56:51;;;;;;;;;;;17.90;62.60;;;;;;5018243;28;1968;-74
2023/01/23 08:59:16;;;;;;;;;;;17.90;62.60;;;;;;5020391;28;923;-74
2023/01/23 09:01:41;;;;;;;;;;;17.90;62.60;;;;;;5017569;28;909;-73
2023/01/23 09:04:07;;;;;;;;;;;17.90;62.50;;;;;;5023052;28;992;-74
2023/01/23 09:06:32;;;;;;;;;;;17.90;62.50;;;;;;5022987;28;920;-73
2023/01/23 09:08:58;;;;;;;;;;;17.90;62.50;;;;;;5023075;28;1294;-73
2023/01/23 09:11:23;;;;;;;;;;;17.90;62.50;;;;;;5024497;28;2263;-73
2023/01/23 09:13:49;;;;;;;;;;;18.00;62.40;;;;;;5021010;28;1725;-73
2023/01/23 09:16:15;;;;;;;;;;;18.00;62.40;;;;;;5023580;28;1699;-72
2023/01/23 09:18:40;;;;;;;;;;;18.00;62.40;;;;;;5055285;28;1898;-73
2023/01/23 09:21:06;;;;;;;;;;;18.00;62.40;;;;;;5022231;28;1725;-73
2023/01/23 09:23:32;;;;;;;;;;;18.00;62.40;;;;;;5024471;28;1704;-73
2023/01/23 09:26:04;;;;;;;;;;;18.00;62.40;;;;;;5023071;28;1705;-72
2023/01/23 09:28:30;;;;;;;;;;;18.00;62.30;;;;;;5035313;28;1803;-72
2023/01/23 09:30:55;;;;;;;;;;;18.00;62.30;;;;;;5023951;28;1766;-71
2023/01/23 09:33:25;;;;;;;;;;;18.00;62.30;;;;;;5022219;28;1793;-72
2023/01/23 09:35:51;;;;;;;;;;;18.00;62.30;;;;;;5026054;28;1674;-73
2023/01/23 09:38:16;;;;;;;;;;;18.00;62.30;;;;;;5017208;28;1902;-74
2023/01/23 09:40:47;;;;;;;;;;;18.00;62.30;;;;;;5017859;28;917;-73
2023/01/23 09:43:19;;;;;;;;;;;18.00;62.30;;;;;;5024890;28;1457;-73
2023/01/23 09:45:47;;;;;;;;;;;18.00;62.30;;;;;;5052270;28;887;-72
2023/01/23 09:48:19;;;;;;;;;;;18.00;62.20;;;;;;5018487;28;1400;-73
2023/01/23 09:50:51;;;;;;;;;;;18.00;62.20;;;;;;5050266;28;895;-73
2023/01/23 09:53:18;;;;;;;;;;;18.00;62.20;;;;;;5021015;28;835;-72
2023/01/23 09:55:47;;;;;;;;;;;18.00;62.20;;;;;;5034722;28;887;-72
2023/01/23 09:58:21;;;;;;;;;;;18.00;62.20;;;;;;5021525;28;2055;-72
2023/01/23 10:00:47;;;;;;;;;;;18.00;62.20;;;;;;5052272;28;1388;-72
2023/01/23 10:03:14;;;;;;;;;;;18.00;62.10;;;;;;5016466;28;1299;-73
2023/01/23 10:05:45;;;;;;;;;;;18.00;62.10;;;;;;5033533;28;836;-72
2023/01/23 10:08:29;;;;;;;;;;;18.00;62.10;;;;;;5050521;28;1351;-72
2023/01/23 10:11:07;;;;;;;;;;;18.00;62.20;;;;;;5020841;28;875;-73
2023/01/23 10:13:32;;;;;;;;;;;18.00;62.20;;;;;;5016837;28;809;-73
2023/01/23 10:16:16;;;;;;;;;;;18.00;62.20;;;;;;5027506;28;2150;-72
2023/01/23 10:19:01;;;;;;;;;;;18.00;62.20;;;;;;5051091;28;1906;-72
2023/01/23 10:21:27;;;;;;;;;;;18.00;62.20;;;;;;5024111;28;1331;-73
2023/01/23 10:23:53;;;;;;;;;;;18.00;62.30;;;;;;5020134;28;1359;-72
2023/01/23 10:26:22;;;;;;;;;;;18.00;62.30;;;;;;5018354;28;834;-72
2023/01/23 10:28:48;;;;;;;;;;;18.00;62.30;;;;;;5053176;28;1326;-71
2023/01/23 10:31:46;;;;;;;;;;;18.00;62.40;;;;;;5053039;28;839;-71
2023/01/23 10:34:33;;;;;;;;;;;18.00;62.40;;;;;;5006308;28;1196;-71
2023/01/23 10:36:59;;;;;;;;;;;17.90;62.40;;;;;;5026780;28;1965;-75
2023/01/23 10:39:44;;;;;;;;;;;17.90;62.50;;;;;;5020190;28;1430;-74
2023/01/23 10:42:11;;;;;;;;;;;17.90;62.50;;;;;;5010393;28;1364;-73
2023/01/23 10:44:36;;;;;;;;;;;17.90;62.50;;;;;;5049775;28;1202;-71
2023/01/23 10:47:02;;;;;;;;;;;17.90;62.60;;;;;;5020101;28;1377;-71
2023/01/23 10:49:29;;;;;;;;;;;17.90;62.60;;;;;;5054101;28;1361;-72
2023/01/23 10:51:55;;;;;;;;;;;17.90;62.70;;;;;;5053796;28;1556;-72
2023/01/23 10:54:21;;;;;;;;;;;17.90;62.70;;;;;;5021288;28;1423;-74
2023/01/23 10:56:49;;;;;;;;;;;17.90;62.70;;;;;;5039320;28;1953;-73
2023/01/23 10:59:24;;;;;;;;;;;17.90;62.80;;;;;;5022168;28;1288;-72
2023/01/23 11:02:08;;;;;;;;;;;17.80;62.80;;;;;;5019628;28;1377;-73
2023/01/23 11:04:34;;;;;;;;;;;17.80;62.80;;;;;;5017306;28;1344;-73
2023/01/23 11:07:00;;;;;;;;;;;17.80;62.90;;;;;;5021061;28;1291;-74
2023/01/23 11:09:25;;;;;;;;;;;17.80;62.90;;;;;;5020509;28;1258;-72
2023/01/23 11:12:01;;;;;;;;;;;17.80;62.90;;;;;;5019033;28;1013;-74
2023/01/23 11:14:26;;;;;;;;;;;17.80;63.00;;;;;;5028726;28;830;-75
2023/01/23 11:16:59;;;;;;;;;;;17.80;63.00;;;;;;5021150;28;1983;-75
2023/01/23 11:19:24;;;;;;;;;;;17.80;63.00;;;;;;5022909;28;1413;-74
2023/01/23 11:21:56;;;;;;;;;;;17.80;63.00;;;;;;5020276;28;830;-74
2023/01/23 11:24:22;;;;;;;;;;;17.80;63.00;;;;;;5021045;28;1019;-74
2023/01/23 11:26:47;;;;;;;;;;;17.80;63.10;;;;;;5016651;28;1261;-75
2023/01/23 11:29:20;;;;;;;;;;;17.70;63.10;;;;;;5019164;28;1547;-74
2023/01/23 11:31:46;;;;;;;;;;;17.80;63.20;;;;;;5023460;28;820;-75
2023/01/23 11:34:12;;;;;;;;;;;17.70;63.10;;;;;;5050283;28;1021;-73
2023/01/23 11:36:40;;;;;;;;;;;17.70;63.20;;;;;;5018955;28;1745;-74
2023/01/23 11:39:21;;;;;;;;;;;17.70;63.20;;;;;;5048880;28;1157;-73
2023/01/23 11:41:46;;;;;;;;;;;17.70;63.20;;;;;;5018800;28;896;-74
2023/01/23 11:44:14;;;;;;;;;;;17.70;63.20;;;;;;5021380;28;856;-73
2023/01/23 11:46:39;;;;;;;;;;;17.70;63.20;;;;;;5016795;28;1127;-74
2023/01/23 11:49:26;;;;;;;;;;;17.70;63.20;;;;;;5015496;28;1303;-73
2023/01/23 11:51:58;;;;;;;;;;;17.70;63.30;;;;;;5048448;28;812;-74
2023/01/23 11:54:48;;;;;;;;;;;17.70;63.30;;;;;;5050575;28;1173;-73
2023/01/23 11:57:18;;;;;;;;;;;17.70;63.40;;;;;;5019426;28;1946;-74
2023/01/23 11:59:45;;;;;;;;;;;17.70;63.40;;;;;;5020262;28;961;-74
2023/01/23 12:02:11;;;;;;;;;;;17.70;63.40;;;;;;5019001;28;838;-74
2023/01/23 12:04:48;;;;;;;;;;;17.70;63.40;;;;;;5018935;28;1024;-74
2023/01/23 12:07:20;;;;;;;;;;;17.70;63.40;;;;;;5016430;28;1231;-74
2023/01/23 12:09:45;;;;;;;;;;;17.70;63.50;;;;;;5033233;28;1465;-74
2023/01/23 12:12:15;;;;;;;;;;;17.60;63.40;;;;;;5019742;28;851;-74
2023/01/23 12:14:50;;;;;;;;;;;17.70;63.50;;;;;;5018752;28;833;-74
2023/01/23 12:17:15;;;;;;;;;;;17.60;63.40;;;;;;5021141;28;1961;-75
2023/01/23 12:19:44;;;;;;;;;;;17.60;63.50;;;;;;5016179;28;880;-74
2023/01/23 12:22:16;;;;;;;;;;;17.60;63.50;;;;;;5036613;28;1294;-74
2023/01/23 12:24:41;;;;;;;;;;;17.60;63.50;;;;;;5016170;28;896;-74
2023/01/23 12:27:29;;;;;;;;;;;17.60;63.50;;;;;;5015142;28;1259;-73
2023/01/23 12:30:03;;;;;;;;;;;17.60;63.50;;;;;;5034993;28;840;-73
2023/01/23 12:32:31;;;;;;;;;;;17.60;63.60;;;;;;5021635;28;1393;-72
2023/01/23 12:35:00;;;;;;;;;;;17.60;63.60;;;;;;5022343;28;1285;-71
2023/01/23 12:37:45;;;;;;;;;;;17.60;63.60;;;;;;5025677;28;1902;-73
2023/01/23 12:40:10;;;;;;;;;;;17.60;63.60;;;;;;5022957;28;867;-71
2023/01/23 12:42:40;;;;;;;;;;;17.60;63.60;;;;;;5020583;28;927;-75
2023/01/23 12:45:17;;;;;;;;;;;17.60;63.60;;;;;;5054748;28;1363;-75
2023/01/23 12:47:47;;;;;;;;;;;17.60;63.60;;;;;;5020407;28;1346;-71
2023/01/23 12:50:14;;;;;;;;;;;17.60;63.70;;;;;;5019577;28;1324;-71
2023/01/23 12:52:42;;;;;;;;;;;17.60;63.70;;;;;;5043888;28;1339;-71
2023/01/23 12:55:21;;;;;;;;;;;17.60;63.70;;;;;;5019935;28;828;-72
2023/01/23 12:57:55;;;;;;;;;;;17.60;63.70;;;;;;5053020;28;1977;-72
2023/01/23 13:00:39;;;;;;;;;;;17.60;63.70;;;;;;5021370;28;919;-72
2023/01/23 13:03:05;;;;;;;;;;;17.50;63.70;;;;;;5020619;28;831;-74
2023/01/23 13:05:33;;;;;;;;;;;17.60;63.80;;;;;;5020924;28;1348;-71
2023/01/23 13:08:05;;;;;;;;;;;17.60;63.80;;;;;;5052069;28;1269;-70
2023/01/23 13:11:39;;;;;;;;;;;17.50;63.70;;;;;;5023270;28;950;-71
2023/01/23 13:13:16;;;;;;;;;;;17.50;63.70;;;;;;5018380;28;1211;-72
2023/01/23 13:15:42;;;;;;;;;;;17.60;63.80;;;;;;5051278;28;1379;-72
2023/01/23 13:18:21;;;;;;;;;;;17.60;63.80;;;;;;5056193;28;1914;-75
2023/01/23 13:23:38;;;;;;;;;;;17.60;63.60;;;;;;5023481;28;1312;-74
2023/01/23 13:26:18;;;;;;;;;;;17.60;63.60;;;;;;5021153;28;1003;-73
2023/01/23 13:28:53;;;;;;;;;;;17.60;63.50;;;;;;5018282;28;1319;-73
2023/01/23 13:31:35;;;;;;;;;;;17.70;63.40;;;;;;5033033;28;943;-73
2023/01/23 13:34:01;;;;;;;;;;;17.70;63.30;;;;;;5049951;28;907;-74
2023/01/23 13:36:28;;;;;;;;;;;17.70;64.00;;;;;;5020399;28;867;-73
2023/01/23 13:39:04;;;;;;;;;;;17.70;63.00;;;;;;5033954;28;1971;-74
2023/01/23 13:41:30;;;;;;;;;;;17.80;63.00;;;;;;5020472;28;833;-72
2023/01/23 13:44:14;;;;;;;;;;;17.80;62.90;;;;;;5051281;28;847;-72
2023/01/23 13:46:48;;;;;;;;;;;17.80;62.80;;;;;;5022587;28;1438;-73
2023/01/23 13:49:51;;;;;;;;;;;17.80;62.70;;;;;;5021746;28;1206;-74
2023/01/23 13:57:57;;;;;;;;;;;17.90;62.70;;;;;;5023454;28;1949;-75
2023/01/23 14:00:22;;;;;;;;;;;17.90;62.60;;;;;;5055221;28;1342;-73
2023/01/23 14:05:36;;;;;;;;;;;17.90;62.50;;;;;;5021018;28;856;-72
2023/01/23 14:08:04;;;;;;;;;;;17.90;62.50;;;;;;5052170;28;1846;-74
2023/01/23 14:10:30;;;;;;;;;;;17.90;62.50;;;;;;5020728;28;1219;-72
2023/01/23 14:13:02;;;;;;;;;;;17.90;62.40;;;;;;5050158;28;1019;-71
2023/01/23 14:18:16;;;;;;;;;;;17.90;62.40;;;;;;5050249;28;1966;-72
2023/01/23 14:20:41;;;;;;;;;;;17.90;62.40;;;;;;5009143;28;1332;-73
2023/01/23 14:23:25;;;;;;;;;;;17.90;62.40;;;;;;5053182;28;964;-74
2023/01/23 14:25:50;;;;;;;;;;;17.90;62.40;;;;;;5021055;28;887;-75
2023/01/23 14:28:16;;;;;;;;;;;17.90;62.30;;;;;;5051484;28;2114;-73
2023/01/23 14:30:51;;;;;;;;;;;17.90;62.30;;;;;;5021109;28;1354;-73
2023/01/23 14:33:16;;;;;;;;;;;17.90;62.30;;;;;;5039357;28;1304;-73
2023/01/23 14:35:42;;;;;;;;;;;17.90;62.30;;;;;;5020726;28;1281;-72
2023/01/23 14:38:07;;;;;;;;;;;17.90;62.30;;;;;;5020841;28;1915;-71
2023/01/23 14:40:32;;;;;;;;;;;17.90;62.30;;;;;;5020305;28;883;-71
2023/01/23 14:43:02;;;;;;;;;;;17.90;62.30;;;;;;5017852;28;796;-69
2023/01/23 14:45:29;;;;;;;;;;;17.90;62.30;;;;;;5033348;28;874;-70
2023/01/23 14:47:54;;;;;;;;;;;18.00;62.30;;;;;;5053038;28;1327;-70
2023/01/23 14:50:20;;;;;;;;;;;17.90;62.30;;;;;;5023512;28;832;-71
2023/01/23 14:52:55;;;;;;;;;;;17.90;62.30;;;;;;5020571;28;829;-72
2023/01/23 14:55:21;;;;;;;;;;;17.90;62.30;;;;;;5018534;28;1018;-73
2023/01/23 14:57:48;;;;;;;;;;;17.90;62.30;;;;;;5020505;28;1956;-74
2023/01/23 15:00:16;;;;;;;;;;;17.90;62.30;;;;;;5021044;28;808;-77